sensor_id;sensor_type;location;lat;lon;timestamp;P1;durP1;ratioP1;P2;durP2;ratioP2
81821;SDS011;72257;52.384;4.882;2023-09-18T00:01:14;21.07;;;13.43;;
81821;SDS011;72257;52.384;4.882;2023-09-18T00:03:39;21.00;;;13.00;;
81821;SDS011;72257;52.384;4.882;2023-09-18T00:06:05;20.17;;;13.40;;
81821;SDS011;72257;52.384;4.882;2023-09-18T00:08:31;18.33;;;12.63;;
81821;SDS011;72257;52.384;4.882;2023-09-18T00:10:56;18.67;;;12.52;;
81821;SDS011;72257;52.384;4.882;2023-09-18T00:13:22;19.77;;;12.82;;
81821;SDS011;72257;52.384;4.882;2023-09-18T00:15:47;19.85;;;13.65;;
81821;SDS011;72257;52.384;4.882;2023-09-18T00:18:16;17.63;;;12.35;;
81821;SDS011;72257;52.384;4.882;2023-09-18T00:20:42;19.75;;;12.98;;
81821;SDS011;72257;52.384;4.882;2023-09-18T00:23:08;19.27;;;13.23;;
81821;SDS011;72257;52.384;4.882;2023-09-18T00:25:34;18.70;;;13.60;;
81821;SDS011;72257;52.384;4.882;2023-09-18T00:27:59;16.50;;;11.53;;
81821;SDS011;72257;52.384;4.882;2023-09-18T00:30:24;19.10;;;12.40;;
81821;SDS011;72257;52.384;4.882;2023-09-18T00:32:49;21.20;;;13.10;;
81821;SDS011;72257;52.384;4.882;2023-09-18T00:35:15;18.07;;;11.90;;
81821;SDS011;72257;52.384;4.882;2023-09-18T00:37:40;17.17;;;11.70;;
81821;SDS011;72257;52.384;4.882;2023-09-18T00:40:06;17.83;;;12.53;;
81821;SDS011;72257;52.384;4.882;2023-09-18T00:42:31;19.35;;;12.48;;
81821;SDS011;72257;52.384;4.882;2023-09-18T00:44:57;18.33;;;12.07;;
81821;SDS011;72257;52.384;4.882;2023-09-18T00:47:22;20.58;;;12.73;;
81821;SDS011;72257;52.384;4.882;2023-09-18T00:49:48;17.63;;;11.53;;
81821;SDS011;72257;52.384;4.882;2023-09-18T00:52:14;18.73;;;12.55;;
81821;SDS011;72257;52.384;4.882;2023-09-18T00:54:40;20.23;;;12.57;;
81821;SDS011;72257;52.384;4.882;2023-09-18T00:57:06;19.80;;;11.82;;
81821;SDS011;72257;52.384;4.882;2023-09-18T00:59:31;17.90;;;12.60;;
81821;SDS011;72257;52.384;4.882;2023-09-18T01:01:57;16.40;;;11.77;;
81821;SDS011;72257;52.384;4.882;2023-09-18T01:04:22;17.60;;;12.30;;
81821;SDS011;72257;52.384;4.882;2023-09-18T01:06:50;18.58;;;11.98;;
81821;SDS011;72257;52.384;4.882;2023-09-18T01:09:16;16.20;;;11.52;;
81821;SDS011;72257;52.384;4.882;2023-09-18T01:11:54;15.18;;;10.90;;
81821;SDS011;72257;52.384;4.882;2023-09-18T01:17:04;18.83;;;12.07;;
81821;SDS011;72257;52.384;4.882;2023-09-18T01:21:57;15.05;;;10.75;;
81821;SDS011;72257;52.384;4.882;2023-09-18T01:24:23;14.97;;;10.80;;
81821;SDS011;72257;52.384;4.882;2023-09-18T01:26:48;16.38;;;11.00;;
81821;SDS011;72257;52.384;4.882;2023-09-18T01:29:13;15.33;;;10.53;;
81821;SDS011;72257;52.384;4.882;2023-09-18T01:31:38;16.43;;;11.37;;
81821;SDS011;72257;52.384;4.882;2023-09-18T01:34:03;16.40;;;10.33;;
81821;SDS011;72257;52.384;4.882;2023-09-18T01:36:29;16.75;;;10.95;;
81821;SDS011;72257;52.384;4.882;2023-09-18T01:38:54;16.50;;;10.37;;
81821;SDS011;72257;52.384;4.882;2023-09-18T01:41:20;14.68;;;10.48;;
81821;SDS011;72257;52.384;4.882;2023-09-18T01:43:45;14.87;;;10.43;;
81821;SDS011;72257;52.384;4.882;2023-09-18T01:46:11;16.65;;;10.40;;
81821;SDS011;72257;52.384;4.882;2023-09-18T01:48:36;16.77;;;10.07;;
81821;SDS011;72257;52.384;4.882;2023-09-18T01:51:01;17.30;;;11.80;;
81821;SDS011;72257;52.384;4.882;2023-09-18T01:53:26;12.83;;;10.23;;
81821;SDS011;72257;52.384;4.882;2023-09-18T01:55:51;17.90;;;11.60;;
81821;SDS011;72257;52.384;4.882;2023-09-18T01:58:17;16.08;;;9.60;;
81821;SDS011;72257;52.384;4.882;2023-09-18T02:00:42;14.03;;;9.90;;
81821;SDS011;72257;52.384;4.882;2023-09-18T02:03:07;15.80;;;10.03;;
81821;SDS011;72257;52.384;4.882;2023-09-18T02:05:32;14.07;;;9.83;;
81821;SDS011;72257;52.384;4.882;2023-09-18T02:07:58;14.87;;;9.90;;
81821;SDS011;72257;52.384;4.882;2023-09-18T02:10:23;12.37;;;9.70;;
81821;SDS011;72257;52.384;4.882;2023-09-18T02:12:48;11.70;;;8.60;;
81821;SDS011;72257;52.384;4.882;2023-09-18T02:15:13;13.20;;;9.00;;
81821;SDS011;72257;52.384;4.882;2023-09-18T02:20:06;11.52;;;8.02;;
81821;SDS011;72257;52.384;4.882;2023-09-18T02:22:36;12.45;;;8.98;;
81821;SDS011;72257;52.384;4.882;2023-09-18T02:25:03;13.32;;;8.48;;
81821;SDS011;72257;52.384;4.882;2023-09-18T02:27:28;13.35;;;8.52;;
81821;SDS011;72257;52.384;4.882;2023-09-18T02:29:53;11.47;;;8.10;;
81821;SDS011;72257;52.384;4.882;2023-09-18T02:32:18;15.00;;;10.57;;
81821;SDS011;72257;52.384;4.882;2023-09-18T02:34:44;12.85;;;8.40;;
81821;SDS011;72257;52.384;4.882;2023-09-18T02:37:09;12.97;;;8.00;;
81821;SDS011;72257;52.384;4.882;2023-09-18T02:39:34;11.93;;;8.47;;
81821;SDS011;72257;52.384;4.882;2023-09-18T02:41:59;11.63;;;8.57;;
81821;SDS011;72257;52.384;4.882;2023-09-18T02:44:24;13.23;;;8.70;;
81821;SDS011;72257;52.384;4.882;2023-09-18T02:46:50;13.17;;;8.37;;
81821;SDS011;72257;52.384;4.882;2023-09-18T02:49:15;15.00;;;8.70;;
81821;SDS011;72257;52.384;4.882;2023-09-18T02:51:40;12.97;;;8.50;;
81821;SDS011;72257;52.384;4.882;2023-09-18T02:54:05;15.83;;;9.00;;
81821;SDS011;72257;52.384;4.882;2023-09-18T02:56:30;13.10;;;9.33;;
81821;SDS011;72257;52.384;4.882;2023-09-18T02:58:56;14.03;;;9.30;;
81821;SDS011;72257;52.384;4.882;2023-09-18T03:01:21;13.50;;;9.40;;
81821;SDS011;72257;52.384;4.882;2023-09-18T03:03:46;14.27;;;9.88;;
81821;SDS011;72257;52.384;4.882;2023-09-18T03:06:11;16.23;;;10.70;;
81821;SDS011;72257;52.384;4.882;2023-09-18T03:08:36;15.70;;;9.57;;
81821;SDS011;72257;52.384;4.882;2023-09-18T03:11:02;16.70;;;10.47;;
81821;SDS011;72257;52.384;4.882;2023-09-18T03:13:28;14.70;;;9.75;;
81821;SDS011;72257;52.384;4.882;2023-09-18T03:15:53;14.65;;;9.90;;
81821;SDS011;72257;52.384;4.882;2023-09-18T03:18:18;16.30;;;10.30;;
81821;SDS011;72257;52.384;4.882;2023-09-18T03:20:44;16.37;;;10.93;;
81821;SDS011;72257;52.384;4.882;2023-09-18T03:23:09;16.20;;;10.13;;
81821;SDS011;72257;52.384;4.882;2023-09-18T03:25:35;18.80;;;11.47;;
81821;SDS011;72257;52.384;4.882;2023-09-18T03:28:00;15.00;;;10.45;;
81821;SDS011;72257;52.384;4.882;2023-09-18T03:30:25;15.77;;;10.40;;
81821;SDS011;72257;52.384;4.882;2023-09-18T03:32:51;17.23;;;10.02;;
81821;SDS011;72257;52.384;4.882;2023-09-18T03:35:16;15.57;;;9.85;;
81821;SDS011;72257;52.384;4.882;2023-09-18T03:40:10;18.63;;;11.27;;
81821;SDS011;72257;52.384;4.882;2023-09-18T03:42:35;16.57;;;10.43;;
81821;SDS011;72257;52.384;4.882;2023-09-18T03:45:00;14.77;;;10.70;;
81821;SDS011;72257;52.384;4.882;2023-09-18T03:47:26;17.40;;;11.23;;
81821;SDS011;72257;52.384;4.882;2023-09-18T03:49:51;16.03;;;10.90;;
81821;SDS011;72257;52.384;4.882;2023-09-18T03:52:16;15.37;;;11.43;;
81821;SDS011;72257;52.384;4.882;2023-09-18T03:54:41;16.17;;;11.03;;
81821;SDS011;72257;52.384;4.882;2023-09-18T03:57:06;17.67;;;11.33;;
81821;SDS011;72257;52.384;4.882;2023-09-18T03:59:31;17.03;;;11.93;;
81821;SDS011;72257;52.384;4.882;2023-09-18T04:01:57;19.33;;;11.30;;
81821;SDS011;72257;52.384;4.882;2023-09-18T04:04:22;19.50;;;12.53;;
81821;SDS011;72257;52.384;4.882;2023-09-18T04:06:47;18.27;;;11.07;;
81821;SDS011;72257;52.384;4.882;2023-09-18T04:09:12;21.73;;;11.73;;
81821;SDS011;72257;52.384;4.882;2023-09-18T04:11:40;19.80;;;11.73;;
81821;SDS011;72257;52.384;4.882;2023-09-18T04:14:05;20.00;;;12.80;;
81821;SDS011;72257;52.384;4.882;2023-09-18T04:16:30;19.67;;;11.87;;
81821;SDS011;72257;52.384;4.882;2023-09-18T04:19:02;24.02;;;13.13;;
81821;SDS011;72257;52.384;4.882;2023-09-18T04:21:28;21.35;;;14.20;;
81821;SDS011;72257;52.384;4.882;2023-09-18T04:23:54;21.70;;;13.93;;
81821;SDS011;72257;52.384;4.882;2023-09-18T04:28:47;24.42;;;13.93;;
81821;SDS011;72257;52.384;4.882;2023-09-18T04:31:13;15.40;;;9.35;;
81821;SDS011;72257;52.384;4.882;2023-09-18T04:33:38;11.32;;;6.82;;
81821;SDS011;72257;52.384;4.882;2023-09-18T04:36:03;15.67;;;8.87;;
81821;SDS011;72257;52.384;4.882;2023-09-18T04:38:28;18.50;;;9.30;;
81821;SDS011;72257;52.384;4.882;2023-09-18T04:40:57;17.87;;;9.13;;
81821;SDS011;72257;52.384;4.882;2023-09-18T04:43:22;14.90;;;8.45;;
81821;SDS011;72257;52.384;4.882;2023-09-18T04:45:49;16.38;;;8.98;;
81821;SDS011;72257;52.384;4.882;2023-09-18T04:48:14;12.73;;;7.10;;
81821;SDS011;72257;52.384;4.882;2023-09-18T04:50:40;13.10;;;6.97;;
81821;SDS011;72257;52.384;4.882;2023-09-18T04:53:05;12.80;;;7.00;;
81821;SDS011;72257;52.384;4.882;2023-09-18T04:55:30;11.67;;;7.00;;
81821;SDS011;72257;52.384;4.882;2023-09-18T04:57:56;11.35;;;5.72;;
81821;SDS011;72257;52.384;4.882;2023-09-18T05:00:23;9.70;;;5.97;;
81821;SDS011;72257;52.384;4.882;2023-09-18T05:02:49;13.32;;;5.97;;
81821;SDS011;72257;52.384;4.882;2023-09-18T05:05:14;10.10;;;6.37;;
81821;SDS011;72257;52.384;4.882;2023-09-18T05:07:39;10.40;;;5.50;;
81821;SDS011;72257;52.384;4.882;2023-09-18T05:10:04;10.77;;;5.20;;
81821;SDS011;72257;52.384;4.882;2023-09-18T05:12:30;6.63;;;4.77;;
81821;SDS011;72257;52.384;4.882;2023-09-18T05:14:55;8.77;;;5.40;;
81821;SDS011;72257;52.384;4.882;2023-09-18T05:17:21;9.57;;;4.90;;
81821;SDS011;72257;52.384;4.882;2023-09-18T05:20:03;8.48;;;5.07;;
81821;SDS011;72257;52.384;4.882;2023-09-18T05:22:30;7.32;;;4.22;;
81821;SDS011;72257;52.384;4.882;2023-09-18T05:24:55;7.37;;;5.17;;
81821;SDS011;72257;52.384;4.882;2023-09-18T05:27:20;8.63;;;5.23;;
81821;SDS011;72257;52.384;4.882;2023-09-18T05:29:49;11.13;;;6.38;;
81821;SDS011;72257;52.384;4.882;2023-09-18T05:32:15;10.02;;;5.82;;
81821;SDS011;72257;52.384;4.882;2023-09-18T05:34:40;10.53;;;5.90;;
81821;SDS011;72257;52.384;4.882;2023-09-18T05:37:05;9.27;;;6.00;;
81821;SDS011;72257;52.384;4.882;2023-09-18T05:39:30;10.77;;;7.00;;
81821;SDS011;72257;52.384;4.882;2023-09-18T05:41:56;11.93;;;6.95;;
81821;SDS011;72257;52.384;4.882;2023-09-18T05:44:23;12.63;;;7.78;;
81821;SDS011;72257;52.384;4.882;2023-09-18T05:46:48;12.63;;;8.07;;
81821;SDS011;72257;52.384;4.882;2023-09-18T05:49:13;19.10;;;8.23;;
81821;SDS011;72257;52.384;4.882;2023-09-18T05:51:38;13.57;;;7.90;;
81821;SDS011;72257;52.384;4.882;2023-09-18T05:54:03;15.10;;;8.40;;
81821;SDS011;72257;52.384;4.882;2023-09-18T05:56:29;15.80;;;8.82;;
81821;SDS011;72257;52.384;4.882;2023-09-18T05:58:54;14.33;;;9.10;;
81821;SDS011;72257;52.384;4.882;2023-09-18T06:01:20;17.27;;;9.63;;
81821;SDS011;72257;52.384;4.882;2023-09-18T06:03:45;17.93;;;9.30;;
81821;SDS011;72257;52.384;4.882;2023-09-18T06:06:10;14.93;;;9.40;;
81821;SDS011;72257;52.384;4.882;2023-09-18T06:08:36;15.37;;;9.67;;
81821;SDS011;72257;52.384;4.882;2023-09-18T06:11:01;17.67;;;10.27;;
81821;SDS011;72257;52.384;4.882;2023-09-18T06:13:27;17.27;;;10.47;;
81821;SDS011;72257;52.384;4.882;2023-09-18T06:15:53;16.00;;;10.30;;
81821;SDS011;72257;52.384;4.882;2023-09-18T06:18:19;16.63;;;10.52;;
81821;SDS011;72257;52.384;4.882;2023-09-18T06:20:45;17.30;;;10.75;;
81821;SDS011;72257;52.384;4.882;2023-09-18T06:23:10;17.35;;;9.88;;
81821;SDS011;72257;52.384;4.882;2023-09-18T06:25:36;15.80;;;10.80;;
81821;SDS011;72257;52.384;4.882;2023-09-18T06:28:02;17.33;;;10.55;;
81821;SDS011;72257;52.384;4.882;2023-09-18T06:30:28;17.15;;;10.07;;
81821;SDS011;72257;52.384;4.882;2023-09-18T06:32:55;17.23;;;10.90;;
81821;SDS011;72257;52.384;4.882;2023-09-18T06:35:21;17.73;;;9.93;;
81821;SDS011;72257;52.384;4.882;2023-09-18T06:37:46;16.35;;;10.32;;
81821;SDS011;72257;52.384;4.882;2023-09-18T06:40:11;15.90;;;10.50;;
81821;SDS011;72257;52.384;4.882;2023-09-18T06:42:36;16.37;;;10.63;;
81821;SDS011;72257;52.384;4.882;2023-09-18T06:45:02;16.30;;;9.90;;
81821;SDS011;72257;52.384;4.882;2023-09-18T06:47:28;14.85;;;10.25;;
81821;SDS011;72257;52.384;4.882;2023-09-18T06:49:53;16.53;;;10.73;;
81821;SDS011;72257;52.384;4.882;2023-09-18T06:52:18;16.73;;;10.73;;
81821;SDS011;72257;52.384;4.882;2023-09-18T06:54:43;18.63;;;10.67;;
81821;SDS011;72257;52.384;4.882;2023-09-18T06:57:09;19.13;;;11.57;;
81821;SDS011;72257;52.384;4.882;2023-09-18T06:59:34;18.85;;;11.60;;
81821;SDS011;72257;52.384;4.882;2023-09-18T07:02:00;17.53;;;10.77;;
81821;SDS011;72257;52.384;4.882;2023-09-18T07:04:25;14.95;;;10.00;;
81821;SDS011;72257;52.384;4.882;2023-09-18T07:06:50;15.53;;;10.30;;
81821;SDS011;72257;52.384;4.882;2023-09-18T07:09:18;15.55;;;9.40;;
81821;SDS011;72257;52.384;4.882;2023-09-18T07:11:43;15.50;;;9.40;;
81821;SDS011;72257;52.384;4.882;2023-09-18T07:14:09;15.15;;;10.38;;
81821;SDS011;72257;52.384;4.882;2023-09-18T07:16:34;15.00;;;10.57;;
81821;SDS011;72257;52.384;4.882;2023-09-18T07:18:59;18.67;;;12.07;;
81821;SDS011;72257;52.384;4.882;2023-09-18T07:21:24;18.33;;;11.47;;
81821;SDS011;72257;52.384;4.882;2023-09-18T07:23:50;16.43;;;9.67;;
81821;SDS011;72257;52.384;4.882;2023-09-18T07:26:15;12.98;;;9.55;;
81821;SDS011;72257;52.384;4.882;2023-09-18T07:28:40;14.93;;;10.40;;
81821;SDS011;72257;52.384;4.882;2023-09-18T07:31:06;15.20;;;8.77;;
81821;SDS011;72257;52.384;4.882;2023-09-18T07:33:32;16.38;;;9.80;;
81821;SDS011;72257;52.384;4.882;2023-09-18T07:35:57;14.83;;;9.33;;
81821;SDS011;72257;52.384;4.882;2023-09-18T07:38:22;15.17;;;10.10;;
81821;SDS011;72257;52.384;4.882;2023-09-18T07:40:47;15.00;;;10.47;;
81821;SDS011;72257;52.384;4.882;2023-09-18T07:43:13;16.10;;;10.27;;
81821;SDS011;72257;52.384;4.882;2023-09-18T07:45:38;18.23;;;11.18;;
81821;SDS011;72257;52.384;4.882;2023-09-18T07:48:05;15.88;;;9.80;;
81821;SDS011;72257;52.384;4.882;2023-09-18T07:50:31;15.80;;;10.35;;
81821;SDS011;72257;52.384;4.882;2023-09-18T07:52:58;17.00;;;10.80;;
81821;SDS011;72257;52.384;4.882;2023-09-18T07:55:23;17.13;;;11.03;;
81821;SDS011;72257;52.384;4.882;2023-09-18T07:57:49;16.65;;;10.70;;
81821;SDS011;72257;52.384;4.882;2023-09-18T08:00:14;18.98;;;11.93;;
81821;SDS011;72257;52.384;4.882;2023-09-18T08:02:40;17.10;;;10.68;;
81821;SDS011;72257;52.384;4.882;2023-09-18T08:05:07;18.48;;;10.35;;
81821;SDS011;72257;52.384;4.882;2023-09-18T08:07:33;17.58;;;11.52;;
81821;SDS011;72257;52.384;4.882;2023-09-18T08:10:00;19.38;;;11.23;;
81821;SDS011;72257;52.384;4.882;2023-09-18T08:12:25;17.87;;;10.53;;
81821;SDS011;72257;52.384;4.882;2023-09-18T08:14:50;17.50;;;11.53;;
81821;SDS011;72257;52.384;4.882;2023-09-18T08:17:16;17.63;;;12.00;;
81821;SDS011;72257;52.384;4.882;2023-09-18T08:19:41;16.52;;;10.35;;
81821;SDS011;72257;52.384;4.882;2023-09-18T08:22:07;19.30;;;10.05;;
81821;SDS011;72257;52.384;4.882;2023-09-18T08:24:33;15.20;;;9.47;;
81821;SDS011;72257;52.384;4.882;2023-09-18T08:26:58;16.87;;;8.83;;
81821;SDS011;72257;52.384;4.882;2023-09-18T08:29:23;14.63;;;9.87;;
81821;SDS011;72257;52.384;4.882;2023-09-18T08:31:48;14.87;;;9.33;;
81821;SDS011;72257;52.384;4.882;2023-09-18T08:34:15;16.67;;;7.70;;
81821;SDS011;72257;52.384;4.882;2023-09-18T08:36:40;13.25;;;6.90;;
81821;SDS011;72257;52.384;4.882;2023-09-18T08:39:06;9.07;;;6.23;;
81821;SDS011;72257;52.384;4.882;2023-09-18T08:41:31;7.68;;;4.93;;
81821;SDS011;72257;52.384;4.882;2023-09-18T08:43:59;10.02;;;5.75;;
81821;SDS011;72257;52.384;4.882;2023-09-18T08:48:50;7.85;;;4.43;;
81821;SDS011;72257;52.384;4.882;2023-09-18T08:51:16;7.07;;;4.03;;
81821;SDS011;72257;52.384;4.882;2023-09-18T08:53:43;7.43;;;4.55;;
81821;SDS011;72257;52.384;4.882;2023-09-18T08:56:08;6.80;;;4.10;;
81821;SDS011;72257;52.384;4.882;2023-09-18T08:58:35;6.18;;;4.15;;
81821;SDS011;72257;52.384;4.882;2023-09-18T09:01:02;6.28;;;3.38;;
81821;SDS011;72257;52.384;4.882;2023-09-18T09:03:33;5.78;;;3.88;;
81821;SDS011;72257;52.384;4.882;2023-09-18T09:05:59;6.20;;;3.33;;
81821;SDS011;72257;52.384;4.882;2023-09-18T09:08:26;6.40;;;3.03;;
81821;SDS011;72257;52.384;4.882;2023-09-18T09:10:52;5.68;;;3.30;;
81821;SDS011;72257;52.384;4.882;2023-09-18T09:13:17;9.63;;;3.57;;
81821;SDS011;72257;52.384;4.882;2023-09-18T09:15:43;5.17;;;2.93;;
81821;SDS011;72257;52.384;4.882;2023-09-18T09:18:11;3.88;;;2.90;;
81821;SDS011;72257;52.384;4.882;2023-09-18T09:20:37;6.47;;;3.60;;
81821;SDS011;72257;52.384;4.882;2023-09-18T09:23:03;5.03;;;3.40;;
81821;SDS011;72257;52.384;4.882;2023-09-18T09:25:29;5.93;;;3.00;;
81821;SDS011;72257;52.384;4.882;2023-09-18T09:27:57;6.05;;;3.25;;
81821;SDS011;72257;52.384;4.882;2023-09-18T09:30:24;7.80;;;3.47;;
81821;SDS011;72257;52.384;4.882;2023-09-18T09:32:53;5.75;;;3.42;;
81821;SDS011;72257;52.384;4.882;2023-09-18T09:35:34;4.88;;;3.35;;
81821;SDS011;72257;52.384;4.882;2023-09-18T09:38:00;6.18;;;3.35;;
81821;SDS011;72257;52.384;4.882;2023-09-18T09:40:26;5.35;;;3.75;;
81821;SDS011;72257;52.384;4.882;2023-09-18T09:42:52;4.45;;;3.35;;
81821;SDS011;72257;52.384;4.882;2023-09-18T09:45:19;5.22;;;3.47;;
81821;SDS011;72257;52.384;4.882;2023-09-18T09:47:44;9.15;;;4.32;;
81821;SDS011;72257;52.384;4.882;2023-09-18T09:50:13;6.40;;;4.30;;
81821;SDS011;72257;52.384;4.882;2023-09-18T09:52:41;8.60;;;4.40;;
81821;SDS011;72257;52.384;4.882;2023-09-18T09:55:29;7.97;;;4.70;;
81821;SDS011;72257;52.384;4.882;2023-09-18T09:57:54;5.25;;;4.22;;
81821;SDS011;72257;52.384;4.882;2023-09-18T10:00:22;6.45;;;3.83;;
81821;SDS011;72257;52.384;4.882;2023-09-18T10:02:53;5.50;;;3.50;;
81821;SDS011;72257;52.384;4.882;2023-09-18T10:05:20;6.55;;;3.53;;
81821;SDS011;72257;52.384;4.882;2023-09-18T10:07:45;6.05;;;4.20;;
81821;SDS011;72257;52.384;4.882;2023-09-18T10:10:10;5.43;;;3.88;;
81821;SDS011;72257;52.384;4.882;2023-09-18T10:12:36;5.33;;;3.83;;
81821;SDS011;72257;52.384;4.882;2023-09-18T10:15:01;4.70;;;3.63;;
81821;SDS011;72257;52.384;4.882;2023-09-18T10:17:28;9.20;;;3.72;;
81821;SDS011;72257;52.384;4.882;2023-09-18T10:25:18;6.80;;;4.53;;
81821;SDS011;72257;52.384;4.882;2023-09-18T10:27:44;5.63;;;4.13;;
81821;SDS011;72257;52.384;4.882;2023-09-18T10:30:10;5.50;;;3.83;;
81821;SDS011;72257;52.384;4.882;2023-09-18T10:32:37;5.53;;;3.55;;
81821;SDS011;72257;52.384;4.882;2023-09-18T10:35:03;5.53;;;3.90;;
81821;SDS011;72257;52.384;4.882;2023-09-18T10:37:29;5.70;;;3.60;;
81821;SDS011;72257;52.384;4.882;2023-09-18T10:39:55;5.30;;;3.95;;
81821;SDS011;72257;52.384;4.882;2023-09-18T10:42:21;6.18;;;3.90;;
81821;SDS011;72257;52.384;4.882;2023-09-18T10:44:47;6.50;;;3.90;;
81821;SDS011;72257;52.384;4.882;2023-09-18T10:47:12;5.40;;;4.03;;
81821;SDS011;72257;52.384;4.882;2023-09-18T10:49:39;6.47;;;3.88;;
81821;SDS011;72257;52.384;4.882;2023-09-18T10:52:04;5.20;;;3.47;;
81821;SDS011;72257;52.384;4.882;2023-09-18T10:54:30;5.60;;;4.00;;
81821;SDS011;72257;52.384;4.882;2023-09-18T10:56:55;5.07;;;3.65;;
81821;SDS011;72257;52.384;4.882;2023-09-18T10:59:21;6.95;;;3.67;;
81821;SDS011;72257;52.384;4.882;2023-09-18T11:01:46;5.60;;;3.30;;
81821;SDS011;72257;52.384;4.882;2023-09-18T11:04:13;6.13;;;3.70;;
81821;SDS011;72257;52.384;4.882;2023-09-18T11:09:20;5.03;;;3.72;;
81821;SDS011;72257;52.384;4.882;2023-09-18T11:11:46;5.60;;;3.63;;
81821;SDS011;72257;52.384;4.882;2023-09-18T11:14:13;4.60;;;3.70;;
81821;SDS011;72257;52.384;4.882;2023-09-18T11:16:40;6.63;;;3.60;;
81821;SDS011;72257;52.384;4.882;2023-09-18T11:19:09;6.53;;;4.00;;
81821;SDS011;72257;52.384;4.882;2023-09-18T11:21:35;6.45;;;4.10;;
81821;SDS011;72257;52.384;4.882;2023-09-18T11:24:02;6.00;;;3.47;;
81821;SDS011;72257;52.384;4.882;2023-09-18T11:26:31;6.80;;;3.72;;
81821;SDS011;72257;52.384;4.882;2023-09-18T11:29:00;7.25;;;3.88;;
81821;SDS011;72257;52.384;4.882;2023-09-18T11:34:13;4.32;;;3.42;;
81821;SDS011;72257;52.384;4.882;2023-09-18T11:36:39;6.18;;;3.83;;
81821;SDS011;72257;52.384;4.882;2023-09-18T11:39:05;5.47;;;3.53;;
81821;SDS011;72257;52.384;4.882;2023-09-18T11:41:31;6.67;;;4.00;;
81821;SDS011;72257;52.384;4.882;2023-09-18T11:46:45;4.78;;;3.30;;
81821;SDS011;72257;52.384;4.882;2023-09-18T11:49:13;6.22;;;3.10;;
81821;SDS011;72257;52.384;4.882;2023-09-18T11:51:39;5.65;;;3.58;;
81821;SDS011;72257;52.384;4.882;2023-09-18T11:54:05;6.87;;;3.13;;
81821;SDS011;72257;52.384;4.882;2023-09-18T11:56:31;4.40;;;3.05;;
81821;SDS011;72257;52.384;4.882;2023-09-18T11:58:57;4.82;;;3.05;;
81821;SDS011;72257;52.384;4.882;2023-09-18T12:01:22;4.80;;;3.60;;
81821;SDS011;72257;52.384;4.882;2023-09-18T12:03:54;4.83;;;3.07;;
81821;SDS011;72257;52.384;4.882;2023-09-18T12:06:20;6.00;;;3.30;;
81821;SDS011;72257;52.384;4.882;2023-09-18T12:08:45;4.10;;;2.80;;
81821;SDS011;72257;52.384;4.882;2023-09-18T12:11:11;6.63;;;3.10;;
81821;SDS011;72257;52.384;4.882;2023-09-18T12:13:41;6.32;;;2.90;;
81821;SDS011;72257;52.384;4.882;2023-09-18T12:16:06;3.97;;;3.30;;
81821;SDS011;72257;52.384;4.882;2023-09-18T12:18:32;4.97;;;3.10;;
81821;SDS011;72257;52.384;4.882;2023-09-18T12:21:00;6.25;;;2.90;;
81821;SDS011;72257;52.384;4.882;2023-09-18T12:23:26;5.50;;;3.05;;
81821;SDS011;72257;52.384;4.882;2023-09-18T12:25:57;4.95;;;3.15;;
81821;SDS011;72257;52.384;4.882;2023-09-18T12:28:23;9.23;;;3.55;;
81821;SDS011;72257;52.384;4.882;2023-09-18T12:30:49;9.50;;;2.97;;
81821;SDS011;72257;52.384;4.882;2023-09-18T12:33:17;7.25;;;3.47;;
81821;SDS011;72257;52.384;4.882;2023-09-18T12:35:42;4.63;;;2.93;;
81821;SDS011;72257;52.384;4.882;2023-09-18T12:38:15;5.50;;;3.00;;
81821;SDS011;72257;52.384;4.882;2023-09-18T12:40:40;9.90;;;4.80;;
81821;SDS011;72257;52.384;4.882;2023-09-18T12:43:06;9.60;;;3.45;;
81821;SDS011;72257;52.384;4.882;2023-09-18T12:45:32;9.25;;;3.47;;
81821;SDS011;72257;52.384;4.882;2023-09-18T12:47:58;7.50;;;3.47;;
81821;SDS011;72257;52.384;4.882;2023-09-18T12:50:24;4.57;;;3.30;;
81821;SDS011;72257;52.384;4.882;2023-09-18T12:52:50;7.70;;;3.83;;
81821;SDS011;72257;52.384;4.882;2023-09-18T12:55:22;6.78;;;3.97;;
81821;SDS011;72257;52.384;4.882;2023-09-18T12:57:48;5.40;;;3.60;;
81821;SDS011;72257;52.384;4.882;2023-09-18T13:00:15;6.88;;;4.22;;
81821;SDS011;72257;52.384;4.882;2023-09-18T13:02:44;6.50;;;4.18;;
81821;SDS011;72257;52.384;4.882;2023-09-18T13:05:10;5.95;;;3.88;;
81821;SDS011;72257;52.384;4.882;2023-09-18T13:07:43;4.80;;;3.33;;
81821;SDS011;72257;52.384;4.882;2023-09-18T13:10:08;6.03;;;3.63;;
81821;SDS011;72257;52.384;4.882;2023-09-18T13:12:39;6.15;;;3.90;;
81821;SDS011;72257;52.384;4.882;2023-09-18T13:15:04;5.63;;;3.80;;
81821;SDS011;72257;52.384;4.882;2023-09-18T13:17:43;6.35;;;3.67;;
81821;SDS011;72257;52.384;4.882;2023-09-18T13:20:14;5.82;;;3.47;;
81821;SDS011;72257;52.384;4.882;2023-09-18T13:22:40;6.15;;;4.25;;
81821;SDS011;72257;52.384;4.882;2023-09-18T13:25:07;7.65;;;4.03;;
81821;SDS011;72257;52.384;4.882;2023-09-18T13:27:32;4.75;;;3.70;;
81821;SDS011;72257;52.384;4.882;2023-09-18T13:29:58;5.68;;;3.35;;
81821;SDS011;72257;52.384;4.882;2023-09-18T13:32:31;6.22;;;3.63;;
81821;SDS011;72257;52.384;4.882;2023-09-18T13:34:57;5.90;;;3.70;;
81821;SDS011;72257;52.384;4.882;2023-09-18T13:37:22;10.10;;;3.83;;
81821;SDS011;72257;52.384;4.882;2023-09-18T13:39:47;5.37;;;3.10;;
81821;SDS011;72257;52.384;4.882;2023-09-18T13:42:12;6.97;;;4.10;;
81821;SDS011;72257;52.384;4.882;2023-09-18T13:44:37;6.37;;;4.00;;
81821;SDS011;72257;52.384;4.882;2023-09-18T13:47:03;5.90;;;3.60;;
81821;SDS011;72257;52.384;4.882;2023-09-18T13:49:28;6.28;;;3.55;;
81821;SDS011;72257;52.384;4.882;2023-09-18T13:51:54;6.23;;;3.60;;
81821;SDS011;72257;52.384;4.882;2023-09-18T13:54:19;5.38;;;3.60;;
81821;SDS011;72257;52.384;4.882;2023-09-18T13:56:44;6.37;;;3.63;;
81821;SDS011;72257;52.384;4.882;2023-09-18T13:59:09;4.40;;;2.93;;
81821;SDS011;72257;52.384;4.882;2023-09-18T14:01:35;5.23;;;3.93;;
81821;SDS011;72257;52.384;4.882;2023-09-18T14:04:00;7.93;;;3.58;;
81821;SDS011;72257;52.384;4.882;2023-09-18T14:06:25;5.67;;;3.67;;
81821;SDS011;72257;52.384;4.882;2023-09-18T14:08:51;5.82;;;3.40;;
81821;SDS011;72257;52.384;4.882;2023-09-18T14:11:16;5.13;;;3.60;;
81821;SDS011;72257;52.384;4.882;2023-09-18T14:13:43;5.22;;;3.13;;
81821;SDS011;72257;52.384;4.882;2023-09-18T14:16:08;6.57;;;3.93;;
81821;SDS011;72257;52.384;4.882;2023-09-18T14:18:35;6.15;;;3.33;;
81821;SDS011;72257;52.384;4.882;2023-09-18T14:21:01;4.68;;;3.25;;
81821;SDS011;72257;52.384;4.882;2023-09-18T14:23:26;6.25;;;2.85;;
81821;SDS011;72257;52.384;4.882;2023-09-18T14:25:51;3.70;;;2.70;;
81821;SDS011;72257;52.384;4.882;2023-09-18T14:28:17;7.03;;;3.20;;
81821;SDS011;72257;52.384;4.882;2023-09-18T14:30:42;5.87;;;3.37;;
81821;SDS011;72257;52.384;4.882;2023-09-18T14:33:07;5.93;;;3.20;;
81821;SDS011;72257;52.384;4.882;2023-09-18T14:35:33;4.57;;;3.00;;
81821;SDS011;72257;52.384;4.882;2023-09-18T14:38:01;6.13;;;3.30;;
81821;SDS011;72257;52.384;4.882;2023-09-18T14:40:29;9.35;;;3.60;;
81821;SDS011;72257;52.384;4.882;2023-09-18T14:42:54;5.23;;;3.83;;
81821;SDS011;72257;52.384;4.882;2023-09-18T14:45:19;7.87;;;3.97;;
81821;SDS011;72257;52.384;4.882;2023-09-18T14:47:44;6.13;;;4.57;;
81821;SDS011;72257;52.384;4.882;2023-09-18T14:50:09;8.73;;;5.50;;
81821;SDS011;72257;52.384;4.882;2023-09-18T14:52:34;12.27;;;5.20;;
81821;SDS011;72257;52.384;4.882;2023-09-18T14:55:00;9.30;;;5.00;;
81821;SDS011;72257;52.384;4.882;2023-09-18T14:57:25;10.52;;;6.03;;